Time;durP1;ratioP1;P1;durP2;ratioP2;P2;SDS_P1;SDS_P2;PMS_P1;PMS_P2;Temp;Humidity;BMP_temperature;BMP_pressure;BME280_temperature;BME280_humidity;BME280_pressure;Samples;Min_cycle;Max_cycle;Signal;HPM_P1;HPM_P2
2020/12/20 00:00:15;;;;;;;28.43;21.30;;;6.00;99.90;;;;;;5011957;28;20577;-65
2020/12/20 00:02:46;;;;;;;28.33;20.23;;;6.00;99.90;;;;;;5011915;28;20215;-65
2020/12/20 00:05:12;;;;;;;31.33;21.63;;;6.00;99.90;;;;;;5011782;28;20416;-64
2020/12/20 00:07:37;;;;;;;25.87;19.97;;;6.00;99.90;;;;;;5012142;28;20430;-66
2020/12/20 00:10:03;;;;;;;24.83;19.83;;;6.00;99.90;;;;;;5011993;28;20183;-65
2020/12/20 00:12:29;;;;;;;25.53;19.43;;;6.10;99.90;;;;;;5011837;28;20234;-65
2020/12/20 00:14:54;;;;;;;26.10;20.10;;;6.10;99.90;;;;;;5011991;28;20187;-66
2020/12/20 00:17:20;;;;;;;23.03;18.30;;;6.20;99.90;;;;;;5012053;28;20184;-66
2020/12/20 00:19:45;;;;;;;25.03;19.17;;;6.20;99.90;;;;;;5030487;28;20184;-65
2020/12/20 00:22:13;;;;;;;24.00;18.73;;;6.20;99.90;;;;;;5031318;28;20199;-65
2020/12/20 00:24:41;;;;;;;23.03;19.73;;;6.00;99.90;;;;;;5031320;28;20190;-64
2020/12/20 00:27:07;;;;;;;23.53;17.53;;;6.10;99.90;;;;;;5031493;28;20415;-65
2020/12/20 00:29:33;;;;;;;23.73;18.63;;;6.20;99.90;;;;;;5031421;28;20915;-65
2020/12/20 00:32:00;;;;;;;24.80;18.13;;;6.10;99.90;;;;;;5031244;28;20506;-65
2020/12/20 00:34:26;;;;;;;24.23;17.90;;;6.10;99.90;;;;;;5028605;28;20426;-66
2020/12/20 00:36:52;;;;;;;25.10;18.43;;;6.10;99.90;;;;;;5011234;28;20412;-65
2020/12/20 00:39:19;;;;;;;21.27;17.57;;;6.10;99.90;;;;;;5011626;28;20701;-65
2020/12/20 00:41:57;;;;;;;20.60;16.70;;;6.10;99.90;;;;;;5012317;28;20208;-66
2020/12/20 00:44:24;;;;;;;20.07;17.07;;;6.20;99.90;;;;;;5011467;28;20932;-67
2020/12/20 00:46:50;;;;;;;25.73;17.47;;;6.20;99.90;;;;;;5010797;28;20514;-65
2020/12/20 00:49:16;;;;;;;20.27;15.90;;;6.30;99.90;;;;;;5011394;28;20404;-65
2020/12/20 00:51:42;;;;;;;22.37;17.40;;;6.40;99.90;;;;;;5011251;28;20469;-66
2020/12/20 00:54:08;;;;;;;22.50;16.67;;;6.40;99.90;;;;;;5011138;28;20634;-65
2020/12/20 00:56:34;;;;;;;22.37;16.70;;;6.40;99.90;;;;;;5011422;28;20184;-67
2020/12/20 00:59:00;;;;;;;22.17;18.20;;;6.40;99.90;;;;;;5010824;28;20423;-65
2020/12/20 01:01:26;;;;;;;23.63;18.50;;;6.30;99.90;;;;;;5010695;28;20893;-67
2020/12/20 01:03:52;;;;;;;22.63;18.20;;;6.40;99.90;;;;;;5010982;28;20207;-66
2020/12/20 01:06:20;;;;;;;26.33;19.53;;;6.30;99.90;;;;;;4993272;28;20415;-66
2020/12/20 01:08:46;;;;;;;21.30;16.80;;;6.30;99.90;;;;;;5011134;28;20407;-64
2020/12/20 01:11:12;;;;;;;28.07;21.97;;;6.40;99.90;;;;;;5011003;28;20466;-64
2020/12/20 01:13:41;;;;;;;34.40;23.83;;;6.40;99.90;;;;;;5010868;28;20829;-65
2020/12/20 01:16:07;;;;;;;33.33;24.17;;;6.40;99.90;;;;;;5011088;28;20828;-64
2020/12/20 01:18:32;;;;;;;32.03;22.53;;;6.30;99.90;;;;;;5010566;28;20435;-64
2020/12/20 01:20:58;;;;;;;29.80;21.87;;;6.20;99.90;;;;;;5010984;28;20481;-67
2020/12/20 01:23:31;;;;;;;29.63;21.50;;;6.20;99.90;;;;;;5010759;28;20267;-65
2020/12/20 01:25:58;;;;;;;30.30;21.20;;;6.20;99.90;;;;;;5010845;28;20177;-66
2020/12/20 01:28:24;;;;;;;23.93;18.63;;;6.20;99.90;;;;;;5010654;28;20411;-66
2020/12/20 01:30:52;;;;;;;25.03;19.03;;;6.20;99.90;;;;;;5010725;28;20501;-66
2020/12/20 01:33:17;;;;;;;22.37;17.93;;;6.20;99.90;;;;;;5010856;28;20176;-67
2020/12/20 01:35:43;;;;;;;25.27;18.20;;;6.20;99.90;;;;;;5010668;28;20415;-64
2020/12/20 01:38:08;;;;;;;22.37;17.87;;;6.30;99.90;;;;;;5011023;28;20180;-65
2020/12/20 01:40:34;;;;;;;22.50;17.57;;;6.30;99.90;;;;;;5012400;28;20234;-66
2020/12/20 01:43:00;;;;;;;25.10;17.83;;;6.30;99.90;;;;;;5010665;28;20200;-65
2020/12/20 01:45:25;;;;;;;21.83;16.30;;;6.50;99.90;;;;;;5010678;28;20181;-66
2020/12/20 01:47:51;;;;;;;24.50;16.87;;;6.40;99.90;;;;;;5010561;28;20526;-66
2020/12/20 01:50:17;;;;;;;22.13;16.90;;;6.40;99.90;;;;;;5010436;28;20175;-66
2020/12/20 01:52:42;;;;;;;21.70;16.77;;;6.40;99.90;;;;;;4993094;28;20184;-65
2020/12/20 01:55:08;;;;;;;20.43;16.27;;;6.40;99.90;;;;;;5010502;28;20268;-66
2020/12/20 01:57:34;;;;;;;23.77;16.77;;;6.40;99.90;;;;;;5010481;28;20259;-65
2020/12/20 02:00:00;;;;;;;19.53;15.97;;;6.50;99.90;;;;;;5010454;28;20169;-67
2020/12/20 02:02:26;;;;;;;22.03;16.63;;;6.50;99.90;;;;;;5010170;28;20646;-65
2020/12/20 02:04:52;;;;;;;22.73;16.87;;;6.50;99.90;;;;;;5010543;28;20533;-65
2020/12/20 02:07:17;;;;;;;21.87;17.40;;;6.50;99.90;;;;;;5010367;28;20231;-67
2020/12/20 02:09:44;;;;;;;19.23;15.27;;;6.50;99.90;;;;;;5009218;28;20169;-66
2020/12/20 02:12:11;;;;;;;19.40;15.17;;;6.50;99.90;;;;;;5013314;28;20200;-67
2020/12/20 02:14:38;;;;;;;19.80;15.90;;;6.50;99.90;;;;;;5013926;28;20415;-67
2020/12/20 02:17:05;;;;;;;20.13;16.80;;;6.60;99.90;;;;;;5014195;28;20408;-66
2020/12/20 02:19:30;;;;;;;20.40;16.10;;;6.60;99.90;;;;;;5013932;28;20415;-67
2020/12/20 02:21:56;;;;;;;17.60;14.77;;;6.50;99.90;;;;;;5013963;28;20427;-65
2020/12/20 02:24:21;;;;;;;19.53;14.67;;;6.60;99.90;;;;;;5013704;28;20200;-65
2020/12/20 02:26:54;;;;;;;18.33;14.77;;;6.60;99.90;;;;;;5013572;28;20631;-67
2020/12/20 02:29:20;;;;;;;18.03;15.30;;;6.60;99.90;;;;;;5013666;28;20522;-66
2020/12/20 02:31:46;;;;;;;17.83;15.23;;;6.50;99.90;;;;;;5013794;28;20191;-65
2020/12/20 02:34:12;;;;;;;20.27;16.07;;;6.60;99.90;;;;;;5014033;28;20181;-65
2020/12/20 02:36:37;;;;;;;17.93;15.33;;;6.50;99.90;;;;;;5013773;28;20184;-65
2020/12/20 02:39:07;;;;;;;17.13;15.13;;;6.50;99.90;;;;;;5013796;28;20173;-65
2020/12/20 02:41:39;;;;;;;19.77;15.83;;;6.50;99.90;;;;;;5015218;28;21735;-65
2020/12/20 02:44:04;;;;;;;16.50;14.70;;;6.50;99.90;;;;;;5013490;28;20463;-66
2020/12/20 02:46:30;;;;;;;17.93;15.10;;;6.50;99.90;;;;;;5013511;28;20430;-66
2020/12/20 02:48:57;;;;;;;17.33;14.13;;;6.60;99.90;;;;;;5013535;28;20685;-67
2020/12/20 02:51:27;;;;;;;19.93;14.40;;;6.60;99.90;;;;;;5013266;28;20181;-65
2020/12/20 02:53:52;;;;;;;19.23;14.23;;;6.70;99.90;;;;;;5013348;28;20423;-65
2020/12/20 02:56:22;;;;;;;17.03;14.13;;;6.70;99.90;;;;;;5013645;28;20489;-66
2020/12/20 02:58:49;;;;;;;21.47;15.07;;;6.70;99.90;;;;;;5013254;28;20207;-66
2020/12/20 03:01:15;;;;;;;18.03;15.07;;;6.70;99.90;;;;;;5013407;28;20465;-67
2020/12/20 03:03:41;;;;;;;20.63;15.23;;;6.70;99.90;;;;;;5012921;28;20458;-65
2020/12/20 03:06:06;;;;;;;20.60;16.63;;;6.70;99.90;;;;;;5013469;28;20176;-64
2020/12/20 03:08:33;;;;;;;20.60;14.80;;;6.70;99.90;;;;;;5013072;28;20416;-67
2020/12/20 03:10:58;;;;;;;20.53;14.67;;;6.70;99.90;;;;;;5013233;28;20227;-67
2020/12/20 03:13:24;;;;;;;21.13;14.47;;;6.60;99.90;;;;;;5012956;28;20502;-65
2020/12/20 03:15:50;;;;;;;20.37;15.57;;;6.70;99.90;;;;;;5012853;28;20192;-63
2020/12/20 03:18:15;;;;;;;20.97;16.97;;;6.60;99.90;;;;;;5013257;28;20203;-65
2020/12/20 03:20:41;;;;;;;19.40;15.20;;;6.50;99.90;;;;;;5012918;28;20181;-65
2020/12/20 03:23:06;;;;;;;18.83;16.27;;;6.50;99.90;;;;;;5011450;28;20287;-66
2020/12/20 03:25:32;;;;;;;18.93;15.90;;;6.50;99.90;;;;;;5012860;28;20593;-65
2020/12/20 03:27:58;;;;;;;21.40;16.67;;;6.60;99.90;;;;;;5012606;28;20208;-66
2020/12/20 03:30:24;;;;;;;22.43;17.60;;;6.50;99.90;;;;;;5012804;28;20207;-66
2020/12/20 03:32:50;;;;;;;19.47;15.33;;;6.60;99.90;;;;;;5012882;28;20215;-65
2020/12/20 03:35:15;;;;;;;20.57;16.00;;;6.50;99.90;;;;;;5012671;28;20427;-66
2020/12/20 03:37:53;;;;;;;20.43;16.27;;;6.60;99.90;;;;;;5012427;28;20184;-65
2020/12/20 03:40:21;;;;;;;21.60;16.03;;;6.60;99.90;;;;;;5012669;28;20635;-67
2020/12/20 03:42:53;;;;;;;20.90;15.93;;;6.60;99.90;;;;;;5015358;28;20505;-66
2020/12/20 03:45:20;;;;;;;20.53;15.17;;;6.60;99.90;;;;;;5012388;28;20419;-64
2020/12/20 03:47:46;;;;;;;24.50;17.37;;;6.60;99.90;;;;;;5012351;28;20430;-67
2020/12/20 03:50:12;;;;;;;17.77;15.10;;;6.60;99.90;;;;;;5011999;28;20438;-65
2020/12/20 03:52:37;;;;;;;20.80;16.03;;;6.60;99.90;;;;;;5012345;28;20510;-66
2020/12/20 03:55:04;;;;;;;19.70;15.43;;;6.60;99.90;;;;;;5012311;28;20222;-67
2020/12/20 03:57:29;;;;;;;19.57;15.00;;;6.50;99.90;;;;;;5011986;28;20188;-64
2020/12/20 03:59:57;;;;;;;20.50;16.20;;;6.50;99.90;;;;;;4991800;28;20416;-65
2020/12/20 04:02:23;;;;;;;19.00;15.00;;;6.50;99.90;;;;;;5011900;28;20513;-68
2020/12/20 04:04:49;;;;;;;19.77;15.90;;;6.50;99.90;;;;;;5012221;28;20486;-64
2020/12/20 04:07:14;;;;;;;21.30;15.37;;;6.40;99.90;;;;;;5007324;28;20459;-65
2020/12/20 04:09:40;;;;;;;17.03;14.83;;;6.40;99.90;;;;;;4992274;28;20177;-65
2020/12/20 04:12:06;;;;;;;18.07;14.93;;;6.50;99.90;;;;;;4992454;28;20173;-67
2020/12/20 04:14:32;;;;;;;18.23;15.87;;;6.60;99.90;;;;;;4992256;28;20184;-67
2020/12/20 04:16:57;;;;;;;17.73;14.53;;;6.60;99.90;;;;;;5000695;28;20176;-66
2020/12/20 04:19:23;;;;;;;19.13;14.80;;;6.60;99.90;;;;;;5011783;28;20176;-64
2020/12/20 04:21:48;;;;;;;16.10;13.23;;;6.70;99.90;;;;;;5011890;28;20259;-66
2020/12/20 04:24:15;;;;;;;16.23;13.80;;;6.60;99.90;;;;;;5011587;28;20192;-66
2020/12/20 04:26:41;;;;;;;17.73;14.17;;;6.60;99.90;;;;;;4998414;28;20215;-67
2020/12/20 04:29:07;;;;;;;15.93;14.23;;;6.50;99.90;;;;;;4991919;28;20425;-67
2020/12/20 04:31:32;;;;;;;17.07;14.87;;;6.50;99.90;;;;;;4992158;28;20177;-65
2020/12/20 04:33:58;;;;;;;19.23;14.93;;;6.50;99.90;;;;;;4991536;28;20640;-64
2020/12/20 04:36:24;;;;;;;17.50;14.07;;;6.60;99.90;;;;;;4992114;28;20177;-67
2020/12/20 04:38:49;;;;;;;20.07;15.00;;;6.60;99.90;;;;;;4992206;28;20177;-65
2020/12/20 04:41:23;;;;;;;18.77;15.80;;;6.60;99.90;;;;;;4998906;28;20564;-65
2020/12/20 04:43:50;;;;;;;18.53;15.30;;;6.60;99.90;;;;;;5011570;28;20639;-65
2020/12/20 04:46:17;;;;;;;21.07;15.43;;;6.60;99.90;;;;;;5011242;28;20434;-67
2020/12/20 04:48:44;;;;;;;19.33;15.40;;;6.60;99.90;;;;;;5011267;28;20424;-65
2020/12/20 04:51:11;;;;;;;19.03;15.37;;;6.60;99.90;;;;;;5011218;28;20894;-65
2020/12/20 04:53:38;;;;;;;19.03;15.00;;;6.70;99.90;;;;;;5011271;28;20507;-67
2020/12/20 04:56:08;;;;;;;16.67;13.90;;;6.70;99.90;;;;;;5011226;28;20422;-67
2020/12/20 04:58:35;;;;;;;20.83;14.53;;;6.60;99.90;;;;;;5011327;28;20502;-66
2020/12/20 05:01:03;;;;;;;16.73;14.33;;;6.60;99.90;;;;;;5011085;28;20746;-66
2020/12/20 05:03:28;;;;;;;16.93;13.40;;;6.60;99.90;;;;;;5011046;28;20451;-66
2020/12/20 05:05:55;;;;;;;15.57;13.20;;;6.60;99.90;;;;;;5011032;28;20422;-65
2020/12/20 05:08:22;;;;;;;16.73;13.30;;;6.60;99.90;;;;;;5011075;28;20259;-67
2020/12/20 05:10:48;;;;;;;14.27;12.00;;;6.60;99.90;;;;;;5010874;28;20426;-66
2020/12/20 05:13:14;;;;;;;15.23;11.50;;;6.60;99.90;;;;;;5011207;28;20416;-64
2020/12/20 05:15:39;;;;;;;14.77;12.80;;;6.60;99.90;;;;;;5010822;28;20478;-66
2020/12/20 05:18:06;;;;;;;16.60;12.73;;;6.60;99.90;;;;;;5011046;28;20180;-65
2020/12/20 05:20:35;;;;;;;15.80;13.23;;;6.60;99.90;;;;;;5010852;28;20180;-66
2020/12/20 05:23:00;;;;;;;17.60;13.50;;;6.60;99.90;;;;;;5010846;28;20987;-65
2020/12/20 05:25:28;;;;;;;15.83;13.63;;;6.50;99.90;;;;;;5011271;28;20436;-65
2020/12/20 05:28:05;;;;;;;16.73;12.77;;;6.50;99.90;;;;;;5011146;28;20182;-66
2020/12/20 05:30:30;;;;;;;14.20;12.63;;;6.50;99.90;;;;;;5011011;28;20416;-67
2020/12/20 05:32:56;;;;;;;16.80;12.90;;;6.50;99.90;;;;;;5011102;28;20815;-64
2020/12/20 05:35:21;;;;;;;13.57;11.93;;;6.50;99.90;;;;;;5010898;28;20177;-66
2020/12/20 05:37:47;;;;;;;13.33;11.80;;;6.50;99.90;;;;;;5010898;28;20676;-64
2020/12/20 05:40:24;;;;;;;14.23;11.20;;;6.60;99.90;;;;;;4993230;28;20181;-66
2020/12/20 05:42:55;;;;;;;12.90;10.47;;;6.60;99.90;;;;;;5012451;28;20690;-66
2020/12/20 05:45:30;;;;;;;12.37;9.70;;;6.60;99.90;;;;;;5010586;28;20415;-66
2020/12/20 05:47:56;;;;;;;13.40;10.10;;;6.70;99.90;;;;;;5014703;28;20905;-65
2020/12/20 05:50:27;;;;;;;12.37;9.57;;;6.70;99.90;;;;;;5014567;28;20427;-67
2020/12/20 05:53:01;;;;;;;12.53;10.30;;;6.70;99.90;;;;;;5014518;28;20418;-66
2020/12/20 05:55:40;;;;;;;12.17;10.30;;;6.60;99.90;;;;;;5013012;28;20510;-67
2020/12/20 05:58:13;;;;;;;13.97;10.87;;;6.60;99.90;;;;;;5014338;28;20426;-67
2020/12/20 06:00:43;;;;;;;13.23;10.53;;;6.60;99.90;;;;;;5014587;28;20758;-66
2020/12/20 06:03:10;;;;;;;15.43;11.47;;;6.70;99.90;;;;;;5014398;28;20454;-64
2020/12/20 06:05:38;;;;;;;14.67;10.20;;;6.70;99.90;;;;;;5014103;28;20450;-65
2020/12/20 06:08:07;;;;;;;12.03;10.67;;;6.70;99.90;;;;;;5014294;28;20419;-64
2020/12/20 06:10:38;;;;;;;12.27;10.33;;;6.60;99.90;;;;;;5014137;28;20411;-65
2020/12/20 06:13:07;;;;;;;13.90;11.03;;;6.60;99.90;;;;;;5014181;28;20431;-66
2020/12/20 06:15:36;;;;;;;14.30;10.73;;;6.60;99.90;;;;;;5014343;28;20921;-63
2020/12/20 06:18:07;;;;;;;12.27;10.50;;;6.60;99.90;;;;;;5014485;28;20434;-67
2020/12/20 06:20:38;;;;;;;12.60;9.63;;;6.60;99.90;;;;;;5014108;28;20427;-66
2020/12/20 06:23:03;;;;;;;13.47;10.67;;;6.50;99.90;;;;;;5013912;28;20541;-65
2020/12/20 06:25:29;;;;;;;15.30;10.47;;;6.50;99.90;;;;;;5014031;28;20447;-64
2020/12/20 06:28:04;;;;;;;13.57;10.80;;;6.50;99.90;;;;;;5013742;28;20169;-65
2020/12/20 06:30:29;;;;;;;14.53;11.43;;;6.40;99.90;;;;;;5014027;28;20210;-65
2020/12/20 06:33:02;;;;;;;12.90;11.37;;;6.50;99.90;;;;;;5013810;28;20504;-65
2020/12/20 06:35:30;;;;;;;12.90;10.33;;;6.50;99.90;;;;;;5014143;28;20324;-65
2020/12/20 06:37:56;;;;;;;16.23;10.53;;;6.60;99.90;;;;;;5013663;28;20415;-64
2020/12/20 06:40:31;;;;;;;13.73;10.63;;;6.60;99.90;;;;;;4996154;28;20482;-64
2020/12/20 06:42:59;;;;;;;13.60;10.80;;;6.50;99.90;;;;;;5015180;28;20561;-64
2020/12/20 06:45:27;;;;;;;14.17;10.83;;;6.60;99.90;;;;;;5013546;28;20412;-64
2020/12/20 06:48:00;;;;;;;12.43;10.53;;;6.50;99.90;;;;;;5013423;28;20414;-66
2020/12/20 06:50:46;;;;;;;15.37;11.90;;;6.50;99.90;;;;;;5013456;28;20419;-64
2020/12/20 06:53:18;;;;;;;13.07;11.00;;;6.50;99.90;;;;;;5013175;28;20407;-65
2020/12/20 06:55:45;;;;;;;11.87;10.40;;;6.60;99.90;;;;;;5013273;28;20494;-66
2020/12/20 06:58:17;;;;;;;12.87;9.77;;;6.70;99.90;;;;;;5013035;28;20972;-66
2020/12/20 07:00:53;;;;;;;12.43;10.80;;;6.70;99.90;;;;;;5013327;28;20429;-65
2020/12/20 07:03:24;;;;;;;13.30;10.83;;;6.70;99.90;;;;;;5012891;28;20540;-67
2020/12/20 07:05:54;;;;;;;12.27;10.30;;;6.70;99.90;;;;;;5013252;28;20974;-64
2020/12/20 07:08:22;;;;;;;13.20;11.60;;;6.70;99.90;;;;;;5012950;28;20803;-64
2020/12/20 07:10:55;;;;;;;13.40;10.67;;;6.70;99.90;;;;;;5013054;28;20416;-63
2020/12/20 07:13:40;;;;;;;12.47;11.17;;;6.60;99.90;;;;;;5012954;28;20427;-64
2020/12/20 07:16:09;;;;;;;14.33;11.10;;;6.60;99.90;;;;;;5013075;28;20792;-65
2020/12/20 07:18:42;;;;;;;12.73;9.67;;;6.60;99.90;;;;;;5011239;28;20941;-67
2020/12/20 07:21:17;;;;;;;12.80;10.67;;;6.60;99.90;;;;;;5012923;28;20415;-66
2020/12/20 07:23:45;;;;;;;12.67;10.47;;;6.60;99.90;;;;;;5012640;28;20462;-64
2020/12/20 07:26:11;;;;;;;12.63;10.80;;;6.60;99.90;;;;;;5012742;28;20411;-64
2020/12/20 07:28:37;;;;;;;13.30;10.40;;;6.50;99.90;;;;;;5012502;28;20928;-67
2020/12/20 07:31:03;;;;;;;14.00;10.73;;;6.50;99.90;;;;;;5012429;28;20177;-66
2020/12/20 07:33:29;;;;;;;13.17;11.17;;;6.50;99.90;;;;;;5012556;28;20423;-66
2020/12/20 07:35:54;;;;;;;12.37;10.67;;;6.60;99.90;;;;;;5012282;28;20787;-66
2020/12/20 07:38:20;;;;;;;12.93;10.93;;;6.60;99.90;;;;;;5012553;28;20184;-65
2020/12/20 07:40:46;;;;;;;12.73;10.60;;;6.70;99.90;;;;;;5012339;28;20187;-65
2020/12/20 07:43:11;;;;;;;11.60;10.40;;;6.60;99.90;;;;;;5014000;28;20224;-65
2020/12/20 07:45:37;;;;;;;11.30;10.00;;;6.60;99.90;;;;;;5012218;28;20207;-65
2020/12/20 07:48:02;;;;;;;13.83;11.50;;;6.60;99.90;;;;;;5012158;28;20186;-66
2020/12/20 07:50:28;;;;;;;16.83;11.03;;;6.60;99.90;;;;;;5012240;28;20208;-64
2020/12/20 07:52:54;;;;;;;12.23;11.00;;;6.60;99.90;;;;;;5011975;28;20212;-63
2020/12/20 07:55:19;;;;;;;12.57;10.77;;;6.60;99.90;;;;;;5012411;28;20288;-65
2020/12/20 07:57:48;;;;;;;13.70;10.17;;;6.60;99.90;;;;;;5012192;28;20180;-64
2020/12/20 08:00:14;;;;;;;11.93;9.77;;;6.70;99.90;;;;;;5011708;28;20188;-65
2020/12/20 08:02:40;;;;;;;12.73;9.87;;;6.70;99.90;;;;;;5011796;28;20477;-64
2020/12/20 08:05:10;;;;;;;11.03;9.90;;;6.60;99.90;;;;;;5012028;28;20411;-64
2020/12/20 08:07:37;;;;;;;13.47;10.40;;;6.70;99.90;;;;;;5012157;28;20314;-64
2020/12/20 08:10:06;;;;;;;12.10;9.97;;;6.60;99.90;;;;;;5011257;28;20515;-65
2020/12/20 08:12:35;;;;;;;12.87;10.33;;;6.60;99.90;;;;;;5012022;28;20491;-64
2020/12/20 08:15:08;;;;;;;10.33;9.23;;;6.60;99.90;;;;;;5011782;28;20912;-67
2020/12/20 08:17:35;;;;;;;13.47;10.50;;;6.50;99.90;;;;;;5011202;28;20419;-65
2020/12/20 08:20:05;;;;;;;13.73;10.63;;;6.50;99.90;;;;;;5011845;28;20507;-64
2020/12/20 08:22:34;;;;;;;10.83;9.63;;;6.50;99.90;;;;;;5011291;28;20411;-66
2020/12/20 08:25:10;;;;;;;11.87;10.37;;;6.40;99.90;;;;;;5011718;28;20427;-66
2020/12/20 08:27:45;;;;;;;16.40;11.80;;;6.50;99.90;;;;;;5011796;28;20489;-65
2020/12/20 08:30:11;;;;;;;13.30;11.90;;;6.50;99.90;;;;;;5011595;28;20956;-65
2020/12/20 08:32:41;;;;;;;13.63;10.77;;;6.60;99.90;;;;;;4994221;28;22334;-66
2020/12/20 08:35:14;;;;;;;13.37;10.73;;;6.50;99.90;;;;;;5011630;28;20416;-66
2020/12/20 08:37:40;;;;;;;13.70;11.13;;;6.60;99.90;;;;;;5011472;28;20418;-67
2020/12/20 08:40:14;;;;;;;12.87;11.50;;;6.60;99.90;;;;;;5011192;28;20419;-65
2020/12/20 08:42:41;;;;;;;12.10;10.73;;;6.70;99.90;;;;;;5013096;28;20470;-65
2020/12/20 08:45:23;;;;;;;12.93;11.17;;;6.70;99.90;;;;;;5011457;28;22097;-67
2020/12/20 08:47:50;;;;;;;12.67;10.87;;;6.80;99.90;;;;;;4993526;28;20471;-64
2020/12/20 08:50:24;;;;;;;13.70;11.60;;;6.80;99.90;;;;;;5011078;28;20590;-66
2020/12/20 08:52:58;;;;;;;15.43;12.17;;;6.90;99.90;;;;;;5011215;28;20430;-65
2020/12/20 08:55:24;;;;;;;12.37;11.07;;;6.80;99.90;;;;;;5011051;28;20419;-64
2020/12/20 08:58:04;;;;;;;13.13;10.63;;;6.80;99.90;;;;;;5011165;28;21235;-63
2020/12/20 09:00:30;;;;;;;11.97;10.77;;;6.80;99.90;;;;;;5011116;28;20619;-65
2020/12/20 09:02:59;;;;;;;11.70;10.50;;;6.90;99.90;;;;;;5010906;28;20465;-66
2020/12/20 09:05:29;;;;;;;12.70;10.93;;;6.90;99.90;;;;;;5010966;28;20466;-64
2020/12/20 09:07:57;;;;;;;13.13;10.73;;;7.00;99.90;;;;;;4993335;28;20894;-64
2020/12/20 09:10:30;;;;;;;16.23;11.30;;;7.00;99.90;;;;;;5011128;28;20491;-64
2020/12/20 09:13:03;;;;;;;14.17;11.30;;;7.00;99.90;;;;;;5011150;28;20427;-65
2020/12/20 09:15:29;;;;;;;13.93;11.57;;;7.00;99.90;;;;;;5010628;28;20416;-65
2020/12/20 09:17:55;;;;;;;13.00;10.87;;;7.10;99.90;;;;;;5010730;28;20814;-67
2020/12/20 09:20:28;;;;;;;12.30;11.00;;;7.10;99.90;;;;;;5009935;28;20180;-63
2020/12/20 09:22:55;;;;;;;12.50;11.20;;;7.20;99.90;;;;;;5010757;28;20462;-64
2020/12/20 09:25:44;;;;;;;13.50;11.93;;;7.20;99.90;;;;;;5009612;28;20430;-64
2020/12/20 09:28:20;;;;;;;12.53;10.97;;;7.20;99.90;;;;;;5010219;28;20740;-65
2020/12/20 09:30:46;;;;;;;11.93;10.07;;;7.30;99.90;;;;;;5010310;28;20917;-64
2020/12/20 09:33:23;;;;;;;14.83;11.50;;;7.30;99.90;;;;;;5010918;28;20630;-63
2020/12/20 09:36:02;;;;;;;13.87;11.43;;;7.40;99.90;;;;;;5011210;28;20454;-64
2020/12/20 09:38:40;;;;;;;13.50;10.80;;;7.40;99.90;;;;;;5010659;28;20415;-64
2020/12/20 09:41:09;;;;;;;14.30;11.57;;;7.40;99.90;;;;;;5010871;28;20411;-64
2020/12/20 09:43:35;;;;;;;14.93;11.97;;;7.50;99.90;;;;;;5011283;28;20475;-66
2020/12/20 09:46:01;;;;;;;15.47;11.87;;;7.60;99.90;;;;;;5010819;28;20808;-65
2020/12/20 09:48:30;;;;;;;11.63;10.43;;;7.60;99.90;;;;;;5010657;28;20179;-65
2020/12/20 09:50:56;;;;;;;14.73;11.97;;;7.70;99.90;;;;;;5010575;28;20411;-65
2020/12/20 09:53:22;;;;;;;13.93;11.87;;;7.70;99.90;;;;;;5010617;28;20494;-64
2020/12/20 09:55:48;;;;;;;11.87;10.43;;;7.70;99.90;;;;;;5010837;28;20214;-63
2020/12/20 09:58:14;;;;;;;17.77;10.80;;;7.70;99.90;;;;;;5010888;28;20172;-64
2020/12/20 10:00:41;;;;;;;13.50;10.70;;;7.80;99.90;;;;;;5010579;28;20180;-64
2020/12/20 10:03:07;;;;;;;11.23;10.03;;;7.80;99.90;;;;;;5010817;28;20455;-65
2020/12/20 10:05:33;;;;;;;12.13;10.83;;;7.80;99.90;;;;;;5010189;28;20511;-65
2020/12/20 10:08:00;;;;;;;13.80;11.63;;;7.80;99.90;;;;;;5010655;28;20627;-64
2020/12/20 10:10:26;;;;;;;15.30;12.53;;;7.70;99.90;;;;;;5010230;28;20499;-65
2020/12/20 10:12:51;;;;;;;13.77;12.27;;;7.60;99.90;;;;;;5010665;28;20550;-65
2020/12/20 10:15:17;;;;;;;15.53;13.47;;;7.70;99.90;;;;;;5010721;28;20176;-66
2020/12/20 10:17:44;;;;;;;14.60;12.63;;;7.60;99.90;;;;;;5010695;28;20184;-64
2020/12/20 10:20:10;;;;;;;15.67;13.63;;;7.70;99.90;;;;;;5010541;28;20489;-64
2020/12/20 10:22:36;;;;;;;16.17;14.47;;;7.80;99.90;;;;;;5010298;28;20949;-65
2020/12/20 10:25:01;;;;;;;18.17;14.47;;;7.80;99.90;;;;;;5010142;28;20179;-65
2020/12/20 10:27:27;;;;;;;17.07;14.47;;;7.90;99.90;;;;;;5010361;28;20168;-64
2020/12/20 10:29:53;;;;;;;18.47;15.23;;;7.90;99.90;;;;;;5010430;28;20177;-64
2020/12/20 10:32:18;;;;;;;17.80;14.43;;;7.90;99.90;;;;;;5011615;28;20200;-64
2020/12/20 10:34:44;;;;;;;17.23;14.10;;;7.90;99.90;;;;;;5013827;28;20168;-65
2020/12/20 10:37:09;;;;;;;17.63;14.10;;;8.00;99.90;;;;;;5014007;28;20177;-64
2020/12/20 10:39:35;;;;;;;15.47;13.67;;;7.90;99.90;;;;;;5014006;28;20181;-64
2020/12/20 10:42:00;;;;;;;16.70;14.80;;;8.00;99.90;;;;;;5015647;28;20224;-66
2020/12/20 10:44:28;;;;;;;15.50;13.90;;;8.00;99.90;;;;;;5013344;28;20196;-66
2020/12/20 10:46:53;;;;;;;18.93;15.60;;;8.10;99.90;;;;;;5013626;28;20219;-65
2020/12/20 10:49:20;;;;;;;16.73;14.93;;;8.20;99.90;;;;;;5013344;28;20411;-63
2020/12/20 10:51:54;;;;;;;16.67;14.87;;;8.30;99.90;;;;;;5014112;28;20200;-66
2020/12/20 10:54:21;;;;;;;16.70;14.83;;;8.40;99.90;;;;;;5013516;28;20420;-65
2020/12/20 10:56:48;;;;;;;18.13;15.27;;;8.50;99.90;;;;;;5013526;28;20469;-64
2020/12/20 10:59:14;;;;;;;21.10;15.27;;;8.60;99.90;;;;;;5013509;28;20426;-65
2020/12/20 11:01:40;;;;;;;21.60;16.27;;;8.60;99.90;;;;;;5013021;28;20785;-63
2020/12/20 11:04:06;;;;;;;18.40;16.43;;;8.70;99.90;;;;;;5012904;28;20211;-63
2020/12/20 11:06:32;;;;;;;17.63;15.73;;;8.80;99.90;;;;;;5013079;28;20665;-64
2020/12/20 11:08:57;;;;;;;21.37;18.07;;;8.80;99.90;;;;;;5013396;28;20468;-65
2020/12/20 11:11:29;;;;;;;19.63;17.63;;;8.80;99.90;;;;;;5012925;28;20541;-66
2020/12/20 11:13:55;;;;;;;20.70;16.97;;;8.90;99.90;;;;;;5013070;28;20185;-65
2020/12/20 11:16:20;;;;;;;17.93;16.07;;;8.90;99.90;;;;;;5012661;28;20425;-63
2020/12/20 11:18:52;;;;;;;18.17;16.27;;;8.90;99.90;;;;;;5012971;28;20183;-65
2020/12/20 11:21:18;;;;;;;20.13;17.73;;;8.90;99.90;;;;;;5013041;28;20240;-65
2020/12/20 11:23:46;;;;;;;21.33;19.03;;;8.90;99.90;;;;;;5012835;28;20475;-65
2020/12/20 11:26:14;;;;;;;20.40;18.20;;;9.00;99.90;;;;;;5013061;28;21205;-64
2020/12/20 11:28:41;;;;;;;20.97;17.67;;;9.00;99.90;;;;;;5012807;28;20423;-64
2020/12/20 11:31:15;;;;;;;19.70;16.93;;;8.90;99.90;;;;;;5012855;28;20467;-63
2020/12/20 11:33:40;;;;;;;19.83;17.00;;;8.90;99.90;;;;;;5012699;28;20466;-66
2020/12/20 11:36:07;;;;;;;20.63;18.43;;;8.90;99.90;;;;;;5013108;28;20419;-65
2020/12/20 11:38:33;;;;;;;20.73;16.77;;;8.80;99.90;;;;;;5012745;28;20272;-64
2020/12/20 11:41:00;;;;;;;21.03;18.73;;;8.80;99.90;;;;;;5012554;28;20427;-62
2020/12/20 11:43:26;;;;;;;22.10;18.33;;;8.80;99.90;;;;;;5013407;28;20506;-66
2020/12/20 11:45:52;;;;;;;21.93;19.57;;;8.80;99.90;;;;;;5012440;28;20423;-65
2020/12/20 11:48:18;;;;;;;20.57;18.30;;;8.80;99.90;;;;;;5012709;28;20623;-63
2020/12/20 11:50:43;;;;;;;19.67;17.67;;;9.00;99.90;;;;;;5012667;28;20182;-63
2020/12/20 11:53:09;;;;;;;21.90;19.07;;;9.00;99.90;;;;;;5012486;28;20185;-64
2020/12/20 11:55:35;;;;;;;22.80;20.00;;;9.00;99.90;;;;;;5012372;28;20530;-65
2020/12/20 11:58:01;;;;;;;24.13;20.00;;;9.00;99.90;;;;;;5012068;28;20650;-66
2020/12/20 12:00:28;;;;;;;22.63;20.23;;;8.90;99.90;;;;;;5012326;28;20173;-67
2020/12/20 12:02:54;;;;;;;24.13;19.80;;;8.90;99.90;;;;;;5012163;28;20815;-65
2020/12/20 12:05:26;;;;;;;23.07;20.47;;;8.80;99.90;;;;;;5012193;28;20407;-64
2020/12/20 12:07:52;;;;;;;25.13;21.43;;;8.80;99.90;;;;;;5012153;28;20481;-64
2020/12/20 12:10:18;;;;;;;23.03;20.53;;;8.80;99.90;;;;;;5012113;28;20510;-67
2020/12/20 12:12:43;;;;;;;23.23;20.73;;;8.80;99.90;;;;;;5011950;28;20644;-68
2020/12/20 12:15:09;;;;;;;26.13;21.00;;;8.70;99.90;;;;;;5011883;28;20186;-64
2020/12/20 12:17:34;;;;;;;26.40;22.70;;;8.80;99.90;;;;;;5011920;28;20184;-65
2020/12/20 12:20:00;;;;;;;25.30;21.20;;;8.80;99.90;;;;;;5012104;28;20675;-70
2020/12/20 12:22:25;;;;;;;28.57;22.83;;;8.90;99.90;;;;;;5011678;28;20662;-69
2020/12/20 12:24:51;;;;;;;25.27;22.07;;;8.90;99.90;;;;;;5011859;28;20240;-64
2020/12/20 12:27:17;;;;;;;28.13;23.37;;;8.90;99.90;;;;;;5011722;28;20183;-66
2020/12/20 12:29:42;;;;;;;27.67;23.33;;;8.90;99.90;;;;;;5011638;28;20184;-66
2020/12/20 12:32:08;;;;;;;27.53;23.37;;;8.90;99.90;;;;;;5011689;28;20183;-68
2020/12/20 12:34:33;;;;;;;29.13;24.77;;;8.90;99.90;;;;;;5011587;28;20180;-68
2020/12/20 12:36:59;;;;;;;29.20;25.33;;;8.90;99.90;;;;;;5011628;28;20183;-68
2020/12/20 12:39:24;;;;;;;29.47;25.33;;;8.90;99.90;;;;;;5011467;28;20256;-67